VTRIC VOBL-VOBG
Flight info
| Callsign | VTRIC |
|---|---|
| Flight time | N/A |
| Altitude | 8000 |
| Route | BBG |
| Aircraft | P06T/L-SBDGRY/S |
Departure
| Time | 2026-05-06 18:30 |
|---|---|
| Airport | Kempegowda International Airport Bengaluru (VOBL) |
Arrival
| Time | N/A |
|---|---|
| Airport | HAL Airport (VOBG) |
| Time | Latitude | Longitude | Altitude | Speed | Heading |
|---|---|---|---|---|---|
| 2026-05-06 17:50 | 13.20332 | 77.72015 | 2961 ft | 0 kts | 0° |
| 2026-05-06 18:26 | 13.20336 | 77.72014 | 2961 ft | 2 kts | 339° |
| 2026-05-06 18:26 | 13.20315 | 77.72004 | 2957 ft | 11 kts | 168° |
| 2026-05-06 18:26 | 13.20256 | 77.72026 | 2954 ft | 7 kts | 108° |
| 2026-05-06 18:27 | 13.20261 | 77.72097 | 2958 ft | 12 kts | 48° |
| 2026-05-06 18:27 | 13.20358 | 77.72111 | 2955 ft | 19 kts | 358° |
| 2026-05-06 18:27 | 13.20491 | 77.72116 | 2960 ft | 16 kts | 22° |
| 2026-05-06 18:27 | 13.20527 | 77.72183 | 2959 ft | 13 kts | 56° |
| 2026-05-06 18:28 | 13.20682 | 77.72178 | 2960 ft | 19 kts | 315° |
| 2026-05-06 18:28 | 13.20695 | 77.72154 | 2960 ft | 1 kts | 288° |
| 2026-05-06 18:28 | 13.20691 | 77.72086 | 2960 ft | 20 kts | 262° |
| 2026-05-06 18:28 | 13.20689 | 77.71875 | 2959 ft | 46 kts | 272° |
| 2026-05-06 18:29 | 13.20707 | 77.71376 | 2989 ft | 83 kts | 271° |
| 2026-05-06 18:29 | 13.20568 | 77.70771 | 3095 ft | 92 kts | 225° |
| 2026-05-06 18:29 | 13.19999 | 77.70433 | 3212 ft | 104 kts | 193° |
| 2026-05-06 18:29 | 13.19322 | 77.70298 | 3551 ft | 96 kts | 182° |
| 2026-05-06 18:30 | 13.18597 | 77.70231 | 3653 ft | 112 kts | 181° |
| 2026-05-06 18:30 | 13.17791 | 77.70150 | 3767 ft | 119 kts | 180° |
| 2026-05-06 18:30 | 13.16958 | 77.70012 | 3911 ft | 120 kts | 177° |
| 2026-05-06 18:30 | 13.16197 | 77.70260 | 4050 ft | 117 kts | 161° |
| 2026-05-06 18:31 | 13.15379 | 77.70294 | 4204 ft | 118 kts | 175° |
| 2026-05-06 18:31 | 13.14559 | 77.70303 | 4349 ft | 118 kts | 174° |
| 2026-05-06 18:31 | 13.13733 | 77.70240 | 4497 ft | 119 kts | 179° |
| 2026-05-06 18:31 | 13.12905 | 77.70161 | 4638 ft | 119 kts | 179° |
| 2026-05-06 18:32 | 13.12080 | 77.70074 | 4788 ft | 119 kts | 179° |
| 2026-05-06 18:32 | 13.11259 | 77.69987 | 4926 ft | 118 kts | 179° |
| 2026-05-06 18:32 | 13.10439 | 77.69903 | 5053 ft | 118 kts | 179° |
| 2026-05-06 18:32 | 13.09630 | 77.69820 | 5185 ft | 119 kts | 179° |
| 2026-05-06 18:33 | 13.08800 | 77.69738 | 5306 ft | 121 kts | 179° |
| 2026-05-06 18:33 | 13.07956 | 77.69653 | 5414 ft | 122 kts | 180° |
| 2026-05-06 18:33 | 13.07108 | 77.69587 | 5517 ft | 123 kts | 179° |
| 2026-05-06 18:33 | 13.06251 | 77.69520 | 5638 ft | 124 kts | 179° |
| 2026-05-06 18:34 | 13.05387 | 77.69450 | 5767 ft | 125 kts | 178° |
| 2026-05-06 18:34 | 13.04516 | 77.69378 | 5860 ft | 127 kts | 178° |
| 2026-05-06 18:34 | 13.03643 | 77.69308 | 5956 ft | 128 kts | 179° |
| 2026-05-06 18:34 | 13.02738 | 77.69238 | 5984 ft | 133 kts | 179° |
| 2026-05-06 18:35 | 13.01827 | 77.69168 | 5766 ft | 127 kts | 179° |
| 2026-05-06 18:35 | 13.00971 | 77.69095 | 5525 ft | 119 kts | 179° |
| 2026-05-06 18:35 | 13.00164 | 77.69016 | 5280 ft | 113 kts | 178° |
| 2026-05-06 18:35 | 12.99392 | 77.68940 | 5032 ft | 110 kts | 177° |
| 2026-05-06 18:36 | 12.98639 | 77.68865 | 4802 ft | 108 kts | 177° |
| 2026-05-06 18:36 | 12.97905 | 77.68793 | 4561 ft | 107 kts | 178° |
| 2026-05-06 18:36 | 12.97165 | 77.68707 | 4315 ft | 107 kts | 182° |
| 2026-05-06 18:36 | 12.96433 | 77.68683 | 4069 ft | 103 kts | 163° |
| 2026-05-06 18:37 | 12.95825 | 77.69006 | 3808 ft | 100 kts | 127° |
| 2026-05-06 18:37 | 12.95565 | 77.69395 | 3636 ft | 101 kts | 135° |
| 2026-05-06 18:37 | 12.94694 | 77.69462 | 3528 ft | 96 kts | 205° |
| 2026-05-06 18:37 | 12.94326 | 77.68895 | 3561 ft | 101 kts | 241° |
| 2026-05-06 18:38 | 12.93893 | 77.68306 | 3488 ft | 114 kts | 221° |
| 2026-05-06 18:38 | 12.93293 | 77.67693 | 3257 ft | 128 kts | 220° |
| 2026-05-06 18:38 | 12.92675 | 77.67063 | 3384 ft | 118 kts | 221° |
| 2026-05-06 18:38 | 12.92028 | 77.66535 | 3493 ft | 125 kts | 199° |
| 2026-05-06 18:39 | 12.91182 | 77.66217 | 3504 ft | 135 kts | 197° |
| 2026-05-06 18:39 | 12.90286 | 77.65853 | 3507 ft | 141 kts | 197° |
| 2026-05-06 18:39 | 12.89372 | 77.65488 | 3505 ft | 141 kts | 196° |
| 2026-05-06 18:40 | 12.87526 | 77.64858 | 3489 ft | 129 kts | 175° |
| 2026-05-06 18:40 | 12.86785 | 77.65160 | 3483 ft | 108 kts | 144° |
| 2026-05-06 18:40 | 12.86144 | 77.65496 | 3485 ft | 99 kts | 149° |
| 2026-05-06 18:40 | 12.85540 | 77.65806 | 3477 ft | 94 kts | 141° |
| 2026-05-06 18:41 | 12.85273 | 77.66350 | 3488 ft | 84 kts | 94° |
| 2026-05-06 18:41 | 12.85209 | 77.66958 | 3489 ft | 87 kts | 98° |
| 2026-05-06 18:41 | 12.85106 | 77.67590 | 3496 ft | 93 kts | 99° |
| 2026-05-06 18:41 | 12.85024 | 77.68257 | 3500 ft | 97 kts | 99° |
| 2026-05-06 18:42 | 12.84936 | 77.68948 | 3502 ft | 99 kts | 98° |
| 2026-05-06 18:42 | 12.84838 | 77.69654 | 3504 ft | 101 kts | 98° |
| 2026-05-06 18:42 | 12.84777 | 77.70363 | 3499 ft | 103 kts | 81° |
| 2026-05-06 18:42 | 12.85187 | 77.70983 | 3487 ft | 105 kts | 51° |
| 2026-05-06 18:43 | 12.85802 | 77.71380 | 3485 ft | 107 kts | 27° |
| 2026-05-06 18:43 | 12.86460 | 77.71677 | 3491 ft | 102 kts | 31° |
| 2026-05-06 18:43 | 12.87130 | 77.71934 | 3482 ft | 103 kts | 13° |
| 2026-05-06 18:43 | 12.87828 | 77.72000 | 3485 ft | 101 kts | 12° |
| 2026-05-06 18:44 | 12.88551 | 77.72089 | 3485 ft | 107 kts | 12° |
| 2026-05-06 18:44 | 12.89282 | 77.72174 | 3505 ft | 107 kts | 12° |
| 2026-05-06 18:44 | 12.90029 | 77.72260 | 3503 ft | 108 kts | 12° |
| 2026-05-06 18:44 | 12.90778 | 77.72352 | 3495 ft | 107 kts | 12° |
| 2026-05-06 18:45 | 12.91485 | 77.72432 | 3499 ft | 98 kts | 11° |
| 2026-05-06 18:45 | 12.92156 | 77.72509 | 3493 ft | 98 kts | 12° |
| 2026-05-06 18:45 | 12.92872 | 77.72596 | 3508 ft | 109 kts | 11° |
| 2026-05-06 18:45 | 12.93392 | 77.72670 | 3501 ft | 112 kts | 12° |
| 2026-05-06 18:46 | 12.94430 | 77.72751 | 3492 ft | 117 kts | 348° |
| 2026-05-06 18:46 | 12.95185 | 77.72491 | 3488 ft | 114 kts | 336° |
| 2026-05-06 18:46 | 12.95646 | 77.71892 | 3460 ft | 100 kts | 285° |
| 2026-05-06 18:46 | 12.95499 | 77.71269 | 3427 ft | 86 kts | 232° |
| 2026-05-06 18:47 | 12.95204 | 77.71009 | 3484 ft | 83 kts | 222° |
| 2026-05-06 18:47 | 12.95090 | 77.70282 | 3410 ft | 87 kts | 284° |
| 2026-05-06 18:47 | 12.95212 | 77.69739 | 3332 ft | 87 kts | 271° |
| 2026-05-06 18:47 | 12.95209 | 77.69089 | 3146 ft | 103 kts | 267° |
| 2026-05-06 18:48 | 12.95133 | 77.68391 | 3035 ft | 100 kts | 267° |
| 2026-05-06 18:48 | 12.95101 | 77.67910 | 2917 ft | 102 kts | 265° |
| 2026-05-06 18:48 | 12.95041 | 77.67222 | 2897 ft | 92 kts | 264° |
| 2026-05-06 18:48 | 12.94982 | 77.66583 | 2901 ft | 86 kts | 264° |
| 2026-05-06 18:49 | 12.94927 | 77.65943 | 3092 ft | 87 kts | 264° |
| 2026-05-06 18:49 | 12.94909 | 77.65367 | 3327 ft | 82 kts | 269° |
| 2026-05-06 18:49 | 12.94904 | 77.64705 | 3367 ft | 101 kts | 266° |
| 2026-05-06 18:49 | 12.94749 | 77.63970 | 3504 ft | 116 kts | 240° |
| 2026-05-06 18:50 | 12.94244 | 77.63228 | 3504 ft | 138 kts | 233° |
| 2026-05-06 18:50 | 12.94071 | 77.62239 | 3498 ft | 148 kts | 282° |
| 2026-05-06 18:50 | 12.94577 | 77.61329 | 3510 ft | 148 kts | 305° |
| 2026-05-06 18:50 | 12.94837 | 77.60368 | 3662 ft | 138 kts | 264° |
| 2026-05-06 18:51 | 12.94452 | 77.59530 | 3803 ft | 125 kts | 217° |
| 2026-05-06 18:51 | 12.93713 | 77.59221 | 3949 ft | 108 kts | 174° |
| 2026-05-06 18:51 | 12.93056 | 77.59531 | 3992 ft | 111 kts | 130° |
| 2026-05-06 18:51 | 12.92801 | 77.60296 | 4002 ft | 121 kts | 95° |
| 2026-05-06 18:52 | 12.92618 | 77.61155 | 4006 ft | 126 kts | 110° |
| 2026-05-06 18:52 | 12.92344 | 77.62020 | 4005 ft | 129 kts | 108° |
| 2026-05-06 18:52 | 12.92070 | 77.62905 | 4001 ft | 131 kts | 109° |
| 2026-05-06 18:52 | 12.91797 | 77.63793 | 4004 ft | 130 kts | 109° |
| 2026-05-06 18:53 | 12.91529 | 77.64670 | 4001 ft | 131 kts | 108° |
| 2026-05-06 18:53 | 12.91273 | 77.65511 | 4195 ft | 116 kts | 110° |
| 2026-05-06 18:53 | 12.91065 | 77.66285 | 4426 ft | 110 kts | 109° |
| 2026-05-06 18:53 | 12.90870 | 77.67029 | 4629 ft | 106 kts | 109° |
| 2026-05-06 18:54 | 12.90676 | 77.67743 | 4847 ft | 102 kts | 109° |
| 2026-05-06 18:54 | 12.90483 | 77.68436 | 5053 ft | 100 kts | 108° |
| 2026-05-06 18:54 | 12.90285 | 77.69109 | 5258 ft | 99 kts | 108° |
| 2026-05-06 18:54 | 12.90074 | 77.69779 | 5465 ft | 98 kts | 108° |
| 2026-05-06 18:55 | 12.90079 | 77.70481 | 5676 ft | 99 kts | 88° |
| 2026-05-06 18:55 | 12.90091 | 77.71185 | 5889 ft | 99 kts | 89° |
| 2026-05-06 18:55 | 12.90115 | 77.71888 | 6099 ft | 99 kts | 88° |
| 2026-05-06 18:55 | 12.90142 | 77.72592 | 6322 ft | 98 kts | 87° |
| 2026-05-06 18:56 | 12.90170 | 77.73288 | 6524 ft | 97 kts | 87° |
| 2026-05-06 18:56 | 12.90197 | 77.73967 | 6726 ft | 96 kts | 87° |
| 2026-05-06 18:56 | 12.90226 | 77.74651 | 6933 ft | 95 kts | 87° |
| 2026-05-06 18:56 | 12.90255 | 77.75329 | 7134 ft | 95 kts | 86° |
| 2026-05-06 18:57 | 12.90284 | 77.76003 | 7340 ft | 94 kts | 86° |
| 2026-05-06 18:57 | 12.90312 | 77.76675 | 7551 ft | 94 kts | 86° |
| 2026-05-06 18:57 | 12.90341 | 77.77340 | 7758 ft | 95 kts | 86° |
| 2026-05-06 18:57 | 12.90369 | 77.78014 | 7965 ft | 94 kts | 85° |
| 2026-05-06 18:58 | 12.90398 | 77.78683 | 8179 ft | 94 kts | 85° |
| 2026-05-06 18:58 | 12.90427 | 77.79347 | 8394 ft | 93 kts | 85° |
| 2026-05-06 18:58 | 12.90454 | 77.80006 | 8606 ft | 93 kts | 84° |
| 2026-05-06 18:58 | 12.90482 | 77.80663 | 8826 ft | 92 kts | 84° |
| 2026-05-06 18:59 | 12.90510 | 77.81314 | 9043 ft | 91 kts | 84° |
| 2026-05-06 18:59 | 12.90538 | 77.81950 | 9257 ft | 90 kts | 84° |
| 2026-05-06 18:59 | 12.90564 | 77.82586 | 9472 ft | 88 kts | 83° |
| 2026-05-06 18:59 | 12.90590 | 77.83206 | 9691 ft | 86 kts | 83° |
| 2026-05-06 19:00 | 12.90617 | 77.83813 | 9905 ft | 85 kts | 83° |
| 2026-05-06 19:00 | 12.90645 | 77.84452 | 9987 ft | 97 kts | 83° |
| 2026-05-06 19:00 | 12.90677 | 77.85196 | 10001 ft | 111 kts | 84° |
| 2026-05-06 19:00 | 12.90713 | 77.86018 | 9996 ft | 122 kts | 84° |
| 2026-05-06 19:01 | 12.90750 | 77.86910 | 10001 ft | 128 kts | 84° |
| 2026-05-06 19:01 | 12.90788 | 77.87832 | 9998 ft | 130 kts | 84° |
| 2026-05-06 19:01 | 12.90829 | 77.88770 | 9991 ft | 132 kts | 84° |
| 2026-05-06 19:01 | 12.90866 | 77.89711 | 9991 ft | 132 kts | 84° |
| 2026-05-06 19:02 | 12.90909 | 77.90659 | 9995 ft | 133 kts | 84° |
| 2026-05-06 19:02 | 12.90947 | 77.91609 | 9989 ft | 134 kts | 84° |
| 2026-05-06 19:02 | 12.90987 | 77.92563 | 9983 ft | 134 kts | 85° |
| 2026-05-06 19:02 | 12.91027 | 77.93504 | 9983 ft | 134 kts | 84° |
| 2026-05-06 19:03 | 12.91067 | 77.94460 | 9980 ft | 134 kts | 84° |
| 2026-05-06 19:03 | 12.91108 | 77.95419 | 9984 ft | 134 kts | 84° |
| 2026-05-06 19:03 | 12.91148 | 77.96373 | 9980 ft | 134 kts | 85° |
| 2026-05-06 19:03 | 12.91188 | 77.97331 | 9976 ft | 134 kts | 84° |
| 2026-05-06 19:04 | 12.91229 | 77.98283 | 9972 ft | 134 kts | 84° |
| 2026-05-06 19:04 | 12.91267 | 77.99224 | 9971 ft | 134 kts | 85° |
| 2026-05-06 19:04 | 12.91308 | 78.00175 | 9971 ft | 134 kts | 84° |
| 2026-05-06 19:04 | 12.91347 | 78.01127 | 9973 ft | 134 kts | 84° |
| 2026-05-06 19:05 | 12.91388 | 78.02080 | 9974 ft | 134 kts | 85° |
| 2026-05-06 19:05 | 12.91428 | 78.03038 | 9973 ft | 134 kts | 84° |
| 2026-05-06 19:05 | 12.91468 | 78.03995 | 9972 ft | 134 kts | 84° |
| 2026-05-06 19:05 | 12.91508 | 78.04952 | 9973 ft | 134 kts | 85° |
| 2026-05-06 19:06 | 12.91547 | 78.05911 | 9970 ft | 135 kts | 84° |
| 2026-05-06 19:06 | 12.91587 | 78.06869 | 9970 ft | 134 kts | 85° |
| 2026-05-06 19:06 | 12.91627 | 78.07811 | 9969 ft | 134 kts | 85° |
| 2026-05-06 19:06 | 12.91666 | 78.08766 | 9969 ft | 134 kts | 85° |
| 2026-05-06 19:07 | 12.91706 | 78.09720 | 9971 ft | 134 kts | 85° |
| 2026-05-06 19:07 | 12.91746 | 78.10673 | 9964 ft | 133 kts | 84° |
| 2026-05-06 19:07 | 12.91785 | 78.11624 | 9965 ft | 134 kts | 85° |
| 2026-05-06 19:07 | 12.91824 | 78.12575 | 9969 ft | 133 kts | 85° |
| 2026-05-06 19:08 | 12.91863 | 78.13525 | 9969 ft | 133 kts | 84° |
| 2026-05-06 19:08 | 12.91903 | 78.14463 | 9968 ft | 133 kts | 85° |
| 2026-05-06 19:08 | 12.91942 | 78.15416 | 9966 ft | 133 kts | 84° |
| 2026-05-06 19:08 | 12.91981 | 78.16371 | 9964 ft | 134 kts | 85° |
| 2026-05-06 19:09 | 12.92021 | 78.17322 | 9962 ft | 134 kts | 84° |
| 2026-05-06 19:09 | 12.92060 | 78.18275 | 9964 ft | 134 kts | 85° |
| 2026-05-06 19:09 | 12.92099 | 78.19226 | 9963 ft | 133 kts | 85° |
| 2026-05-06 19:09 | 12.92138 | 78.20175 | 9966 ft | 133 kts | 85° |
| 2026-05-06 19:10 | 12.92178 | 78.21122 | 9962 ft | 133 kts | 84° |
| 2026-05-06 19:10 | 12.92216 | 78.22067 | 9966 ft | 133 kts | 85° |
| 2026-05-06 19:10 | 12.92255 | 78.23002 | 9963 ft | 133 kts | 85° |
| 2026-05-06 19:10 | 12.92293 | 78.23947 | 9961 ft | 133 kts | 85° |
| 2026-05-06 19:11 | 12.92332 | 78.24896 | 9962 ft | 133 kts | 84° |
| 2026-05-06 19:11 | 12.92371 | 78.25844 | 9963 ft | 133 kts | 85° |
| 2026-05-06 19:11 | 12.92409 | 78.26780 | 9960 ft | 133 kts | 85° |
| 2026-05-06 19:11 | 12.92448 | 78.27728 | 9964 ft | 133 kts | 85° |
| 2026-05-06 19:12 | 12.92487 | 78.28683 | 9960 ft | 133 kts | 85° |
| 2026-05-06 19:12 | 12.92526 | 78.29633 | 9960 ft | 133 kts | 85° |
| 2026-05-06 19:12 | 12.92564 | 78.30583 | 9957 ft | 133 kts | 85° |
| 2026-05-06 19:12 | 12.92604 | 78.31529 | 9956 ft | 133 kts | 85° |
| 2026-05-06 19:13 | 12.92641 | 78.32467 | 9955 ft | 133 kts | 85° |
| 2026-05-06 19:13 | 12.92680 | 78.33416 | 9954 ft | 133 kts | 85° |
| 2026-05-06 19:13 | 12.92719 | 78.34364 | 9953 ft | 133 kts | 85° |
| 2026-05-06 19:13 | 12.92757 | 78.35315 | 9953 ft | 133 kts | 85° |
| 2026-05-06 19:14 | 12.92795 | 78.36252 | 9954 ft | 133 kts | 85° |
| 2026-05-06 19:14 | 12.92834 | 78.37202 | 9953 ft | 133 kts | 85° |
| 2026-05-06 19:14 | 12.92872 | 78.38153 | 9954 ft | 134 kts | 85° |
| 2026-05-06 19:14 | 12.92911 | 78.39106 | 9954 ft | 134 kts | 85° |
| 2026-05-06 19:15 | 12.92949 | 78.40061 | 9955 ft | 134 kts | 85° |
| 2026-05-06 19:15 | 12.92988 | 78.41015 | 9957 ft | 133 kts | 85° |
| 2026-05-06 19:15 | 12.93027 | 78.41965 | 9950 ft | 133 kts | 85° |
| 2026-05-06 19:15 | 12.93064 | 78.42914 | 9951 ft | 133 kts | 85° |
| 2026-05-06 19:16 | 12.93102 | 78.43850 | 9949 ft | 133 kts | 85° |
| 2026-05-06 19:16 | 12.93140 | 78.44804 | 9950 ft | 133 kts | 85° |
| 2026-05-06 19:16 | 12.93178 | 78.45752 | 9950 ft | 133 kts | 85° |
| 2026-05-06 19:16 | 12.93216 | 78.46702 | 9946 ft | 133 kts | 85° |
| 2026-05-06 19:17 | 12.93255 | 78.47651 | 9946 ft | 133 kts | 85° |
| 2026-05-06 19:17 | 12.93293 | 78.48602 | 9947 ft | 133 kts | 85° |
| 2026-05-06 19:17 | 12.93331 | 78.49553 | 9947 ft | 133 kts | 85° |
| 2026-05-06 19:17 | 12.93370 | 78.50505 | 9944 ft | 134 kts | 85° |
| 2026-05-06 19:18 | 12.93407 | 78.51460 | 9944 ft | 134 kts | 85° |
| 2026-05-06 19:18 | 12.93445 | 78.52410 | 9945 ft | 133 kts | 85° |
| 2026-05-06 19:18 | 12.93481 | 78.53351 | 9940 ft | 134 kts | 85° |
| 2026-05-06 19:18 | 12.93521 | 78.54302 | 9939 ft | 133 kts | 85° |
| 2026-05-06 19:19 | 12.93558 | 78.55256 | 9939 ft | 134 kts | 85° |
| 2026-05-06 19:19 | 12.93598 | 78.56211 | 9938 ft | 134 kts | 85° |
| 2026-05-06 19:19 | 12.93634 | 78.57163 | 9937 ft | 134 kts | 85° |
| 2026-05-06 19:19 | 12.93787 | 78.58080 | 9927 ft | 132 kts | 60° |
| 2026-05-06 19:20 | 12.94437 | 78.58737 | 9926 ft | 132 kts | 41° |
| 2026-05-06 19:20 | 12.95116 | 78.59368 | 9932 ft | 132 kts | 43° |
| 2026-05-06 19:20 | 12.95796 | 78.59999 | 9929 ft | 131 kts | 43° |
| 2026-05-06 19:20 | 12.96474 | 78.60629 | 9933 ft | 132 kts | 43° |
| 2026-05-06 19:21 | 12.97157 | 78.61267 | 9935 ft | 133 kts | 43° |
| 2026-05-06 19:21 | 12.97840 | 78.61902 | 9935 ft | 132 kts | 43° |
| 2026-05-06 19:21 | 12.98515 | 78.62532 | 9937 ft | 133 kts | 43° |
| 2026-05-06 19:21 | 12.99202 | 78.63170 | 9932 ft | 133 kts | 42° |
| 2026-05-06 19:22 | 12.99883 | 78.63807 | 9930 ft | 132 kts | 43° |
| 2026-05-06 19:22 | 13.00567 | 78.64445 | 9932 ft | 133 kts | 43° |
| 2026-05-06 19:22 | 13.01249 | 78.65085 | 9935 ft | 133 kts | 43° |
| 2026-05-06 19:22 | 13.01933 | 78.65729 | 9931 ft | 134 kts | 43° |
| 2026-05-06 19:23 | 13.02617 | 78.66371 | 9931 ft | 133 kts | 43° |
| 2026-05-06 19:23 | 13.03290 | 78.67004 | 9929 ft | 132 kts | 43° |
| 2026-05-06 19:23 | 13.03967 | 78.67642 | 9930 ft | 132 kts | 43° |
| 2026-05-06 19:23 | 13.04646 | 78.68281 | 9931 ft | 132 kts | 43° |
| 2026-05-06 19:24 | 13.05322 | 78.68922 | 9928 ft | 132 kts | 43° |
| 2026-05-06 19:24 | 13.06000 | 78.69561 | 9932 ft | 132 kts | 43° |
| 2026-05-06 19:24 | 13.06675 | 78.70196 | 9930 ft | 132 kts | 43° |
| 2026-05-06 19:24 | 13.07349 | 78.70832 | 9928 ft | 132 kts | 43° |
| 2026-05-06 19:25 | 13.08027 | 78.71471 | 9929 ft | 132 kts | 43° |
| 2026-05-06 19:25 | 13.08702 | 78.72106 | 9926 ft | 132 kts | 43° |
| 2026-05-06 19:25 | 13.09377 | 78.72742 | 9927 ft | 132 kts | 43° |
| 2026-05-06 19:25 | 13.10053 | 78.73382 | 9925 ft | 132 kts | 43° |
| 2026-05-06 19:26 | 13.10731 | 78.74021 | 9924 ft | 132 kts | 43° |
| 2026-05-06 19:26 | 13.11399 | 78.74651 | 9923 ft | 132 kts | 43° |
| 2026-05-06 19:26 | 13.12076 | 78.75291 | 9923 ft | 132 kts | 43° |
| 2026-05-06 19:26 | 13.12754 | 78.75930 | 9924 ft | 132 kts | 43° |
| 2026-05-06 19:27 | 13.13432 | 78.76571 | 9925 ft | 132 kts | 43° |
| 2026-05-06 19:27 | 13.14110 | 78.77211 | 9927 ft | 132 kts | 43° |
| 2026-05-06 19:27 | 13.14789 | 78.77849 | 9925 ft | 132 kts | 43° |
| 2026-05-06 19:27 | 13.15458 | 78.78483 | 9925 ft | 133 kts | 43° |
| 2026-05-06 19:28 | 13.16072 | 78.79058 | 9917 ft | 107 kts | 43° |
| 2026-05-06 19:28 | 13.16568 | 78.79559 | 9906 ft | 97 kts | 50° |
| 2026-05-06 19:28 | 13.17034 | 78.80052 | 9907 ft | 96 kts | 47° |
| 2026-05-06 19:28 | 13.17515 | 78.80519 | 9902 ft | 95 kts | 46° |
| 2026-05-06 19:29 | 13.18000 | 78.80976 | 9905 ft | 95 kts | 46° |
| 2026-05-06 19:29 | 13.18480 | 78.81427 | 9906 ft | 93 kts | 45° |
| 2026-05-06 19:29 | 13.18946 | 78.81867 | 9910 ft | 95 kts | 40° |